Portada
METAR-TAF:

METAR-TAF

Aeroports :

Belgrad, Sèrbia

latitud: 44-49N, longitud: 020-17E, altitud: 96 m

Observació

L'informe es va fer fa 23 minuts, a les 13:00 UTC
Vent 7 kt del Nord-Est, variant entre Nord i Est/Sud-Est
Temperatura 27°C
Humitat 51%
Pressió 1020 hPa
Visibilitat 10 km o més
Núvols disperses a una alçada de 4300 ft

METAR: LYBE 261300Z 04007KT 010V110 9999 SCT043 27/16 Q1020 NOSIG

Hora: 15:23 (13:23 UTC)

Pronòstic

L'informe es va fer fa 2 hores i 23 minuts, a les 11:00 UTC
Pronòstic vàlid del 26 a les 12 UTC al 27 a les 12 UTC
Vent 5 kt del Nord/Nord-Est
Visibilitat 10 km o més
Núvols disperses a una alçada de 4000 ft
Temporalment
l' 26 a les 12 UTC al 26 a les 18 UTC
Vent 15 kt amb direcció variable
Visibilitat: 3000 m
Núvols disperses a una alçada de 3300 ft, Cumulonimbus.
Cel ennuvolat a una alçada de 4000 ft
tempesta, pluja

TAF: LYBE 261100Z 2612/2712 03005KT 9999 SCT040 TX27/2712Z TN15/2703Z TEMPO 2612/2618 VRB015KT 3000 TSRA SCT033CB BKN040

Observacions i pronòstics meteorològics de més de 4000 aeroports (METAR i TAF).

Les estacions disponibles són els punts grocs i vermells al mapa.

Posi el ratolí al punt desitjat per veure el nom de l'estació.

Feu clic per veure les observacions i els pronòstics meteorològics.

Per canviar el mapa: feu clic els botons verds amb una creu de color negre per apropar; al botó verd amb un guió per allunyar la imatge; o en les fletxes verdes per a mapes adjacents.


METAR-TAF: